sensor_id;sensor_type;location;lat;lon;timestamp;pressure;altitude;pressure_sealevel;temperature;humidity
50464;BME280;62167;38.552;-121.478;2022-10-16T00:01:21;100839.03;;;23.69;49.54
50464;BME280;62167;38.552;-121.478;2022-10-16T00:03:47;100835.75;;;23.55;49.88
50464;BME280;62167;38.552;-121.478;2022-10-16T00:06:14;100838.81;;;23.42;50.33
50464;BME280;62167;38.552;-121.478;2022-10-16T00:08:41;100839.59;;;23.26;50.49
50464;BME280;62167;38.552;-121.478;2022-10-16T00:11:09;100842.38;;;22.97;50.80
50464;BME280;62167;38.552;-121.478;2022-10-16T00:13:36;100842.56;;;23.08;51.47
50464;BME280;62167;38.552;-121.478;2022-10-16T00:16:03;100843.59;;;22.90;51.92
50464;BME280;62167;38.552;-121.478;2022-10-16T00:18:29;100842.31;;;22.69;52.01
50464;BME280;62167;38.552;-121.478;2022-10-16T00:20:55;100842.81;;;22.54;52.47
50464;BME280;62167;38.552;-121.478;2022-10-16T00:23:21;100838.16;;;22.54;53.21
50464;BME280;62167;38.552;-121.478;2022-10-16T00:25:54;100845.19;;;22.50;53.60
50464;BME280;62167;38.552;-121.478;2022-10-16T00:28:21;100838.06;;;22.38;53.36
50464;BME280;62167;38.552;-121.478;2022-10-16T00:30:46;100843.81;;;22.36;53.40
50464;BME280;62167;38.552;-121.478;2022-10-16T00:33:12;100841.19;;;22.18;53.82
50464;BME280;62167;38.552;-121.478;2022-10-16T00:35:38;100843.81;;;22.01;54.64
50464;BME280;62167;38.552;-121.478;2022-10-16T00:38:04;100843.91;;;21.94;54.74
50464;BME280;62167;38.552;-121.478;2022-10-16T00:40:30;100852.25;;;21.76;54.68
50464;BME280;62167;38.552;-121.478;2022-10-16T00:42:57;100855.56;;;21.78;55.24
50464;BME280;62167;38.552;-121.478;2022-10-16T00:45:22;100856.41;;;21.79;55.57
50464;BME280;62167;38.552;-121.478;2022-10-16T00:47:48;100866.13;;;21.51;55.78
50464;BME280;62167;38.552;-121.478;2022-10-16T00:50:37;100873.16;;;21.47;55.81
50464;BME280;62167;38.552;-121.478;2022-10-16T00:53:02;100871.09;;;21.42;56.09
50464;BME280;62167;38.552;-121.478;2022-10-16T00:55:28;100872.28;;;21.35;56.09
50464;BME280;62167;38.552;-121.478;2022-10-16T00:57:55;100869.03;;;21.08;56.91
50464;BME280;62167;38.552;-121.478;2022-10-16T01:00:23;100873.94;;;20.87;56.87
50464;BME280;62167;38.552;-121.478;2022-10-16T01:02:53;100870.84;;;20.84;56.76
50464;BME280;62167;38.552;-121.478;2022-10-16T01:05:20;100875.63;;;20.70;57.29
50464;BME280;62167;38.552;-121.478;2022-10-16T01:13:15;100887.41;;;20.27;58.61
50464;BME280;62167;38.552;-121.478;2022-10-16T01:15:44;100887.25;;;20.04;59.61
50464;BME280;62167;38.552;-121.478;2022-10-16T01:18:21;100886.84;;;20.00;59.54
50464;BME280;62167;38.552;-121.478;2022-10-16T01:20:54;100898.44;;;19.95;60.01
50464;BME280;62167;38.552;-121.478;2022-10-16T01:31:19;100901.72;;;19.48;61.20
50464;BME280;62167;38.552;-121.478;2022-10-16T01:33:50;100907.66;;;19.38;61.56
50464;BME280;62167;38.552;-121.478;2022-10-16T01:36:21;100914.47;;;19.15;62.26
50464;BME280;62167;38.552;-121.478;2022-10-16T01:38:47;100914.94;;;19.12;62.27
50464;BME280;62167;38.552;-121.478;2022-10-16T01:41:19;100917.97;;;18.91;63.16
50464;BME280;62167;38.552;-121.478;2022-10-16T01:43:48;100923.84;;;18.88;62.93
50464;BME280;62167;38.552;-121.478;2022-10-16T01:46:16;100923.47;;;18.78;63.54
50464;BME280;62167;38.552;-121.478;2022-10-16T01:48:43;100922.66;;;18.71;63.49
50464;BME280;62167;38.552;-121.478;2022-10-16T01:51:11;100923.91;;;18.61;63.73
50464;BME280;62167;38.552;-121.478;2022-10-16T01:53:38;100931.25;;;18.54;64.05
50464;BME280;62167;38.552;-121.478;2022-10-16T01:56:05;100925.81;;;18.34;64.24
50464;BME280;62167;38.552;-121.478;2022-10-16T01:58:34;100929.41;;;18.28;64.40
50464;BME280;62167;38.552;-121.478;2022-10-16T02:01:02;100931.91;;;18.23;64.57
50464;BME280;62167;38.552;-121.478;2022-10-16T02:03:29;100933.41;;;18.26;64.63
50464;BME280;62167;38.552;-121.478;2022-10-16T02:05:55;100938.44;;;18.09;64.78
50464;BME280;62167;38.552;-121.478;2022-10-16T02:08:22;100935.50;;;18.04;65.05
50464;BME280;62167;38.552;-121.478;2022-10-16T02:10:49;100932.97;;;17.89;65.25
50464;BME280;62167;38.552;-121.478;2022-10-16T02:15:47;100944.50;;;17.78;65.60
50464;BME280;62167;38.552;-121.478;2022-10-16T02:18:13;100943.63;;;17.71;66.05
50464;BME280;62167;38.552;-121.478;2022-10-16T02:20:51;100941.06;;;17.62;65.96
50464;BME280;62167;38.552;-121.478;2022-10-16T02:23:20;100943.16;;;17.54;66.05
50464;BME280;62167;38.552;-121.478;2022-10-16T02:25:47;100940.84;;;17.51;66.20
50464;BME280;62167;38.552;-121.478;2022-10-16T02:28:22;100941.69;;;17.45;66.69
50464;BME280;62167;38.552;-121.478;2022-10-16T02:30:57;100939.13;;;17.36;66.52
50464;BME280;62167;38.552;-121.478;2022-10-16T02:33:24;100942.47;;;17.32;66.84
50464;BME280;62167;38.552;-121.478;2022-10-16T02:35:51;100944.13;;;17.26;66.77
50464;BME280;62167;38.552;-121.478;2022-10-16T02:38:18;100952.66;;;17.17;67.22
50464;BME280;62167;38.552;-121.478;2022-10-16T02:40:45;100965.38;;;17.03;67.64
50464;BME280;62167;38.552;-121.478;2022-10-16T02:43:11;100952.22;;;17.06;67.72
50464;BME280;62167;38.552;-121.478;2022-10-16T02:45:39;100961.16;;;16.94;68.31
50464;BME280;62167;38.552;-121.478;2022-10-16T02:48:05;100955.91;;;16.92;68.49
50464;BME280;62167;38.552;-121.478;2022-10-16T02:50:31;100957.75;;;16.85;68.10
50464;BME280;62167;38.552;-121.478;2022-10-16T02:52:57;100964.63;;;16.81;68.38
50464;BME280;62167;38.552;-121.478;2022-10-16T02:55:23;100967.72;;;16.71;68.94
50464;BME280;62167;38.552;-121.478;2022-10-16T02:57:49;100969.91;;;16.61;69.21
50464;BME280;62167;38.552;-121.478;2022-10-16T03:00:15;100969.69;;;16.56;69.48
50464;BME280;62167;38.552;-121.478;2022-10-16T03:02:41;100978.06;;;16.54;69.68
50464;BME280;62167;38.552;-121.478;2022-10-16T03:05:08;100992.19;;;16.43;69.92
50464;BME280;62167;38.552;-121.478;2022-10-16T03:07:34;100998.47;;;16.44;70.13
50464;BME280;62167;38.552;-121.478;2022-10-16T03:10:00;100996.59;;;16.44;70.50
50464;BME280;62167;38.552;-121.478;2022-10-16T03:12:26;100997.38;;;16.38;70.45
50464;BME280;62167;38.552;-121.478;2022-10-16T03:14:52;100987.09;;;16.33;70.34
50464;BME280;62167;38.552;-121.478;2022-10-16T03:17:18;101000.09;;;16.38;70.73
50464;BME280;62167;38.552;-121.478;2022-10-16T03:19:43;100983.53;;;16.33;70.64
50464;BME280;62167;38.552;-121.478;2022-10-16T03:22:09;100989.75;;;16.27;70.73
50464;BME280;62167;38.552;-121.478;2022-10-16T03:24:38;100989.94;;;16.25;70.95
50464;BME280;62167;38.552;-121.478;2022-10-16T03:27:04;100992.03;;;16.23;71.10
50464;BME280;62167;38.552;-121.478;2022-10-16T03:29:30;100991.78;;;16.18;71.34
50464;BME280;62167;38.552;-121.478;2022-10-16T03:31:57;100992.22;;;16.22;71.04
50464;BME280;62167;38.552;-121.478;2022-10-16T03:34:23;100993.19;;;16.14;71.44
50464;BME280;62167;38.552;-121.478;2022-10-16T03:36:49;101002.56;;;16.12;71.55
50464;BME280;62167;38.552;-121.478;2022-10-16T03:39:15;100996.75;;;16.15;71.48
50464;BME280;62167;38.552;-121.478;2022-10-16T03:41:41;101003.44;;;16.12;71.80
50464;BME280;62167;38.552;-121.478;2022-10-16T03:44:07;100994.63;;;16.10;71.75
50464;BME280;62167;38.552;-121.478;2022-10-16T03:46:33;101000.00;;;16.03;71.90
50464;BME280;62167;38.552;-121.478;2022-10-16T03:48:59;101010.03;;;16.03;71.79
50464;BME280;62167;38.552;-121.478;2022-10-16T03:51:25;101009.38;;;16.01;72.01
50464;BME280;62167;38.552;-121.478;2022-10-16T03:53:51;101004.78;;;16.01;72.23
50464;BME280;62167;38.552;-121.478;2022-10-16T03:56:16;101007.44;;;15.95;72.28
50464;BME280;62167;38.552;-121.478;2022-10-16T03:58:42;101017.84;;;15.91;72.37
50464;BME280;62167;38.552;-121.478;2022-10-16T04:01:08;101023.63;;;15.81;73.04
50464;BME280;62167;38.552;-121.478;2022-10-16T04:03:34;101027.56;;;15.79;73.10
50464;BME280;62167;38.552;-121.478;2022-10-16T04:06:00;101033.44;;;15.82;73.15
50464;BME280;62167;38.552;-121.478;2022-10-16T04:08:25;101028.38;;;15.79;73.05
50464;BME280;62167;38.552;-121.478;2022-10-16T04:10:51;101029.81;;;15.75;73.18
50464;BME280;62167;38.552;-121.478;2022-10-16T04:13:17;101030.00;;;15.74;73.44
50464;BME280;62167;38.552;-121.478;2022-10-16T04:15:44;101038.16;;;15.74;73.31
50464;BME280;62167;38.552;-121.478;2022-10-16T04:18:10;101042.09;;;15.71;73.50
50464;BME280;62167;38.552;-121.478;2022-10-16T04:20:36;101045.19;;;15.68;73.57
50464;BME280;62167;38.552;-121.478;2022-10-16T04:23:02;101057.25;;;15.66;73.49
50464;BME280;62167;38.552;-121.478;2022-10-16T04:25:28;101050.63;;;15.68;73.52
50464;BME280;62167;38.552;-121.478;2022-10-16T04:27:54;101052.31;;;15.69;73.43
50464;BME280;62167;38.552;-121.478;2022-10-16T04:30:21;101051.47;;;15.69;73.63
50464;BME280;62167;38.552;-121.478;2022-10-16T04:32:52;101057.47;;;15.64;73.46
50464;BME280;62167;38.552;-121.478;2022-10-16T04:35:19;101061.56;;;15.60;73.79
50464;BME280;62167;38.552;-121.478;2022-10-16T04:37:45;101059.03;;;15.58;73.68
50464;BME280;62167;38.552;-121.478;2022-10-16T04:40:11;101061.84;;;15.50;73.74
50464;BME280;62167;38.552;-121.478;2022-10-16T04:42:37;101072.56;;;15.52;74.08
50464;BME280;62167;38.552;-121.478;2022-10-16T04:45:04;101067.69;;;15.47;74.15
50464;BME280;62167;38.552;-121.478;2022-10-16T04:47:30;101072.91;;;15.49;74.25
50464;BME280;62167;38.552;-121.478;2022-10-16T04:49:56;101072.00;;;15.42;74.35
50464;BME280;62167;38.552;-121.478;2022-10-16T04:52:22;101066.94;;;15.39;74.47
50464;BME280;62167;38.552;-121.478;2022-10-16T04:54:50;101069.56;;;15.32;74.77
50464;BME280;62167;38.552;-121.478;2022-10-16T04:57:16;101083.16;;;15.32;74.82
50464;BME280;62167;38.552;-121.478;2022-10-16T04:59:42;101081.91;;;15.35;74.30
50464;BME280;62167;38.552;-121.478;2022-10-16T05:02:08;101085.66;;;15.34;74.58
50464;BME280;62167;38.552;-121.478;2022-10-16T05:04:33;101090.25;;;15.33;74.48
50464;BME280;62167;38.552;-121.478;2022-10-16T05:06:59;101087.91;;;15.30;74.90
50464;BME280;62167;38.552;-121.478;2022-10-16T05:09:25;101090.16;;;15.26;75.34
50464;BME280;62167;38.552;-121.478;2022-10-16T05:11:51;101098.19;;;15.20;75.44
50464;BME280;62167;38.552;-121.478;2022-10-16T05:14:17;101100.34;;;15.24;75.51
50464;BME280;62167;38.552;-121.478;2022-10-16T05:16:43;101098.19;;;15.20;75.65
50464;BME280;62167;38.552;-121.478;2022-10-16T05:19:08;101090.59;;;15.15;75.93
50464;BME280;62167;38.552;-121.478;2022-10-16T05:21:34;101087.72;;;15.17;75.95
50464;BME280;62167;38.552;-121.478;2022-10-16T05:24:00;101097.25;;;15.13;76.12
50464;BME280;62167;38.552;-121.478;2022-10-16T05:26:26;101099.97;;;15.13;76.04
50464;BME280;62167;38.552;-121.478;2022-10-16T05:28:52;101105.22;;;15.14;75.97
50464;BME280;62167;38.552;-121.478;2022-10-16T05:31:17;101092.03;;;15.11;75.81
50464;BME280;62167;38.552;-121.478;2022-10-16T05:33:43;101102.22;;;15.09;76.26
50464;BME280;62167;38.552;-121.478;2022-10-16T05:36:09;101104.94;;;15.09;76.15
50464;BME280;62167;38.552;-121.478;2022-10-16T05:38:36;101108.69;;;15.08;76.33
50464;BME280;62167;38.552;-121.478;2022-10-16T05:41:02;101113.06;;;15.09;76.25
50464;BME280;62167;38.552;-121.478;2022-10-16T05:43:28;101106.59;;;15.10;76.32
50464;BME280;62167;38.552;-121.478;2022-10-16T05:45:55;101110.75;;;15.06;76.43
50464;BME280;62167;38.552;-121.478;2022-10-16T05:48:21;101113.91;;;15.10;76.52
50464;BME280;62167;38.552;-121.478;2022-10-16T05:50:48;101117.38;;;15.03;76.31
50464;BME280;62167;38.552;-121.478;2022-10-16T05:53:14;101114.47;;;15.05;76.61
50464;BME280;62167;38.552;-121.478;2022-10-16T05:55:40;101117.19;;;15.05;76.41
50464;BME280;62167;38.552;-121.478;2022-10-16T05:58:05;101114.38;;;14.98;76.94
50464;BME280;62167;38.552;-121.478;2022-10-16T06:00:31;101111.84;;;14.97;76.94
50464;BME280;62167;38.552;-121.478;2022-10-16T06:02:57;101114.56;;;14.97;77.12
50464;BME280;62167;38.552;-121.478;2022-10-16T06:05:23;101110.34;;;14.94;77.40
50464;BME280;62167;38.552;-121.478;2022-10-16T06:07:49;101118.66;;;14.93;77.47
50464;BME280;62167;38.552;-121.478;2022-10-16T06:10:14;101111.91;;;14.89;77.65
50464;BME280;62167;38.552;-121.478;2022-10-16T06:12:40;101113.97;;;14.87;77.64
50464;BME280;62167;38.552;-121.478;2022-10-16T06:15:06;101113.78;;;14.88;77.59
50464;BME280;62167;38.552;-121.478;2022-10-16T06:17:32;101122.13;;;14.87;77.90
50464;BME280;62167;38.552;-121.478;2022-10-16T06:19:58;101119.41;;;14.87;77.83
50464;BME280;62167;38.552;-121.478;2022-10-16T06:22:23;101121.44;;;14.85;78.19
50464;BME280;62167;38.552;-121.478;2022-10-16T06:24:49;101126.22;;;14.83;78.04
50464;BME280;62167;38.552;-121.478;2022-10-16T06:27:15;101123.72;;;14.81;78.21
50464;BME280;62167;38.552;-121.478;2022-10-16T06:29:41;101119.75;;;14.84;77.80
50464;BME280;62167;38.552;-121.478;2022-10-16T06:32:08;101112.84;;;14.81;78.30
50464;BME280;62167;38.552;-121.478;2022-10-16T06:34:35;101112.84;;;14.81;77.84
50464;BME280;62167;38.552;-121.478;2022-10-16T06:37:00;101109.09;;;14.82;78.01
50464;BME280;62167;38.552;-121.478;2022-10-16T06:39:26;101110.31;;;14.79;77.90
50464;BME280;62167;38.552;-121.478;2022-10-16T06:41:52;101108.63;;;14.78;77.88
50464;BME280;62167;38.552;-121.478;2022-10-16T06:44:18;101109.84;;;14.76;78.04
50464;BME280;62167;38.552;-121.478;2022-10-16T06:46:44;101118.00;;;14.76;78.21
50464;BME280;62167;38.552;-121.478;2022-10-16T06:49:09;101119.84;;;14.75;78.10
50464;BME280;62167;38.552;-121.478;2022-10-16T06:51:35;101121.69;;;14.75;78.18
50464;BME280;62167;38.552;-121.478;2022-10-16T06:54:06;101127.31;;;14.73;78.11
50464;BME280;62167;38.552;-121.478;2022-10-16T06:56:32;101123.97;;;14.71;78.13
50464;BME280;62167;38.552;-121.478;2022-10-16T06:58:59;101131.91;;;14.73;77.96
50464;BME280;62167;38.552;-121.478;2022-10-16T07:01:25;101122.72;;;14.74;78.03
50464;BME280;62167;38.552;-121.478;2022-10-16T07:03:51;101130.31;;;14.78;77.83
50464;BME280;62167;38.552;-121.478;2022-10-16T07:06:17;101133.03;;;14.78;78.06
50464;BME280;62167;38.552;-121.478;2022-10-16T07:08:44;101139.84;;;14.74;77.97
50464;BME280;62167;38.552;-121.478;2022-10-16T07:11:14;101132.53;;;14.75;77.89
50464;BME280;62167;38.552;-121.478;2022-10-16T07:13:41;101138.84;;;14.75;77.82
50464;BME280;62167;38.552;-121.478;2022-10-16T07:16:14;101137.31;;;14.73;77.97
50464;BME280;62167;38.552;-121.478;2022-10-16T07:18:41;101142.09;;;14.71;78.27
50464;BME280;62167;38.552;-121.478;2022-10-16T07:21:09;101137.50;;;14.71;77.86
50464;BME280;62167;38.552;-121.478;2022-10-16T07:23:35;101137.50;;;14.71;78.14
50464;BME280;62167;38.552;-121.478;2022-10-16T07:26:01;101135.16;;;14.68;78.26
50464;BME280;62167;38.552;-121.478;2022-10-16T07:28:27;101139.56;;;14.69;78.11
50464;BME280;62167;38.552;-121.478;2022-10-16T07:30:53;101144.97;;;14.69;78.03
50464;BME280;62167;38.552;-121.478;2022-10-16T07:33:20;101152.66;;;14.66;78.25
50464;BME280;62167;38.552;-121.478;2022-10-16T07:35:49;101154.34;;;14.67;78.40
50464;BME280;62167;38.552;-121.478;2022-10-16T07:38:15;101149.94;;;14.66;78.53
50464;BME280;62167;38.552;-121.478;2022-10-16T07:40:41;101156.38;;;14.65;78.28
50464;BME280;62167;38.552;-121.478;2022-10-16T07:43:07;101151.81;;;14.65;78.41
50464;BME280;62167;38.552;-121.478;2022-10-16T07:45:33;101154.53;;;14.65;78.46
50464;BME280;62167;38.552;-121.478;2022-10-16T07:47:59;101156.00;;;14.68;78.39
50464;BME280;62167;38.552;-121.478;2022-10-16T07:50:24;101158.91;;;14.66;78.29
50464;BME280;62167;38.552;-121.478;2022-10-16T07:52:50;101156.19;;;14.66;78.31
50464;BME280;62167;38.552;-121.478;2022-10-16T07:55:16;101157.88;;;14.67;78.30
50464;BME280;62167;38.552;-121.478;2022-10-16T07:57:42;101153.66;;;14.65;78.41
50464;BME280;62167;38.552;-121.478;2022-10-16T08:00:08;101153.84;;;14.63;78.51
50464;BME280;62167;38.552;-121.478;2022-10-16T08:02:41;101153.84;;;14.63;79.08
50464;BME280;62167;38.552;-121.478;2022-10-16T08:05:07;101162.81;;;14.64;78.62
50464;BME280;62167;38.552;-121.478;2022-10-16T08:07:33;101169.91;;;14.65;78.56
50464;BME280;62167;38.552;-121.478;2022-10-16T08:09:58;101170.59;;;14.67;78.33
50464;BME280;62167;38.552;-121.478;2022-10-16T08:12:25;101164.69;;;14.63;78.38
50464;BME280;62167;38.552;-121.478;2022-10-16T08:14:51;101170.31;;;14.62;78.52
50464;BME280;62167;38.552;-121.478;2022-10-16T08:17:17;101171.16;;;14.62;78.52
50464;BME280;62167;38.552;-121.478;2022-10-16T08:19:46;101178.06;;;14.65;78.41
50464;BME280;62167;38.552;-121.478;2022-10-16T08:22:15;101180.97;;;14.63;78.73
50464;BME280;62167;38.552;-121.478;2022-10-16T08:24:41;101182.19;;;14.61;78.61
50464;BME280;62167;38.552;-121.478;2022-10-16T08:27:07;101183.03;;;14.61;78.79
50464;BME280;62167;38.552;-121.478;2022-10-16T08:29:34;101172.19;;;14.61;78.69
50464;BME280;62167;38.552;-121.478;2022-10-16T08:32:00;101173.84;;;14.62;78.74
50464;BME280;62167;38.552;-121.478;2022-10-16T08:34:25;101172.34;;;14.60;78.75
50464;BME280;62167;38.552;-121.478;2022-10-16T08:36:54;101168.78;;;14.59;79.01
50464;BME280;62167;38.552;-121.478;2022-10-16T08:39:20;101177.75;;;14.60;78.84
50464;BME280;62167;38.552;-121.478;2022-10-16T08:44:20;101177.47;;;14.54;79.37
50464;BME280;62167;38.552;-121.478;2022-10-16T08:46:57;101169.31;;;14.54;79.09
50464;BME280;62167;38.552;-121.478;2022-10-16T08:49:26;101170.34;;;14.53;79.40
50464;BME280;62167;38.552;-121.478;2022-10-16T08:51:52;101173.91;;;14.54;78.95
50464;BME280;62167;38.552;-121.478;2022-10-16T08:56:47;101182.03;;;14.54;79.17
50464;BME280;62167;38.552;-121.478;2022-10-16T08:59:13;101180.53;;;14.51;79.28
50464;BME280;62167;38.552;-121.478;2022-10-16T09:01:41;101192.22;;;14.52;79.20
50464;BME280;62167;38.552;-121.478;2022-10-16T09:19:38;101219.88;;;14.47;79.71
50464;BME280;62167;38.552;-121.478;2022-10-16T09:22:11;101208.34;;;14.45;79.83
50464;BME280;62167;38.552;-121.478;2022-10-16T09:24:38;101216.28;;;14.47;79.79
50464;BME280;62167;38.552;-121.478;2022-10-16T09:27:04;101213.78;;;14.45;79.71
50464;BME280;62167;38.552;-121.478;2022-10-16T09:29:30;101218.34;;;14.45;79.85
50464;BME280;62167;38.552;-121.478;2022-10-16T09:31:56;101213.28;;;14.42;79.87
50464;BME280;62167;38.552;-121.478;2022-10-16T09:34:32;101216.81;;;14.42;79.82
50464;BME280;62167;38.552;-121.478;2022-10-16T09:36:59;101223.09;;;14.43;79.74
50464;BME280;62167;38.552;-121.478;2022-10-16T09:39:25;101223.28;;;14.41;79.81
50464;BME280;62167;38.552;-121.478;2022-10-16T09:41:51;101221.22;;;14.43;79.66
50464;BME280;62167;38.552;-121.478;2022-10-16T09:44:29;101226.00;;;14.41;79.77
50464;BME280;62167;38.552;-121.478;2022-10-16T09:49:28;101227.03;;;14.40;80.09
50464;BME280;62167;38.552;-121.478;2022-10-16T09:52:04;101229.22;;;14.37;80.12
50464;BME280;62167;38.552;-121.478;2022-10-16T09:54:30;101236.72;;;14.35;80.17
50464;BME280;62167;38.552;-121.478;2022-10-16T09:57:04;101243.81;;;14.36;80.06
50464;BME280;62167;38.552;-121.478;2022-10-16T09:59:31;101247.38;;;14.36;80.31
50464;BME280;62167;38.552;-121.478;2022-10-16T10:02:00;101242.97;;;14.35;80.47
50464;BME280;62167;38.552;-121.478;2022-10-16T10:04:36;101239.88;;;14.38;80.22
50464;BME280;62167;38.552;-121.478;2022-10-16T10:07:03;101227.56;;;14.36;80.53
50464;BME280;62167;38.552;-121.478;2022-10-16T10:09:32;101227.72;;;14.34;80.17
50464;BME280;62167;38.552;-121.478;2022-10-16T10:12:02;101242.13;;;14.35;80.46
50464;BME280;62167;38.552;-121.478;2022-10-16T10:17:06;101248.94;;;14.31;80.40
50464;BME280;62167;38.552;-121.478;2022-10-16T10:19:44;101245.38;;;14.30;80.62
50464;BME280;62167;38.552;-121.478;2022-10-16T10:22:28;101237.06;;;14.32;80.35
50464;BME280;62167;38.552;-121.478;2022-10-16T10:25:18;101241.63;;;14.31;80.47
50464;BME280;62167;38.552;-121.478;2022-10-16T10:27:56;101239.09;;;14.30;80.64
50464;BME280;62167;38.552;-121.478;2022-10-16T10:35:29;101243.19;;;14.25;80.78
50464;BME280;62167;38.552;-121.478;2022-10-16T10:45:42;101244.75;;;14.20;80.77
50464;BME280;62167;38.552;-121.478;2022-10-16T10:53:30;101246.09;;;14.16;80.96
50464;BME280;62167;38.552;-121.478;2022-10-16T11:06:40;101262.22;;;14.09;80.60
50464;BME280;62167;38.552;-121.478;2022-10-16T11:09:24;101277.63;;;14.09;80.59
50464;BME280;62167;38.552;-121.478;2022-10-16T11:12:01;101276.97;;;14.07;80.74
50464;BME280;62167;38.552;-121.478;2022-10-16T11:22:09;101284.44;;;14.05;80.78
50464;BME280;62167;38.552;-121.478;2022-10-16T11:27:12;101288.50;;;14.00;80.96
50464;BME280;62167;38.552;-121.478;2022-10-16T11:29:43;101297.47;;;14.01;80.79
50464;BME280;62167;38.552;-121.478;2022-10-16T11:32:15;101303.91;;;14.00;81.02
50464;BME280;62167;38.552;-121.478;2022-10-16T11:34:45;101301.53;;;13.97;80.96
50464;BME280;62167;38.552;-121.478;2022-10-16T11:37:26;101303.75;;;13.93;81.02
50464;BME280;62167;38.552;-121.478;2022-10-16T11:39:58;101311.53;;;13.88;81.36
50464;BME280;62167;38.552;-121.478;2022-10-16T11:42:30;101309.84;;;13.87;81.62
50464;BME280;62167;38.552;-121.478;2022-10-16T11:45:42;101319.53;;;13.90;81.30
50464;BME280;62167;38.552;-121.478;2022-10-16T11:47:51;101324.44;;;13.86;81.56
50464;BME280;62167;38.552;-121.478;2022-10-16T11:55:20;101331.03;;;13.84;81.69
50464;BME280;62167;38.552;-121.478;2022-10-16T11:57:48;101327.31;;;13.85;81.43
50464;BME280;62167;38.552;-121.478;2022-10-16T12:00:23;101333.72;;;13.84;81.57
50464;BME280;62167;38.552;-121.478;2022-10-16T12:10:20;101352.03;;;13.82;81.37
50464;BME280;62167;38.552;-121.478;2022-10-16T12:12:47;101359.47;;;13.80;81.49
50464;BME280;62167;38.552;-121.478;2022-10-16T12:15:26;101357.63;;;13.80;81.56
50464;BME280;62167;38.552;-121.478;2022-10-16T12:17:52;101360.16;;;13.82;81.66
50464;BME280;62167;38.552;-121.478;2022-10-16T12:20:28;101352.03;;;13.82;81.62
50464;BME280;62167;38.552;-121.478;2022-10-16T12:23:01;101360.47;;;13.79;81.65
50464;BME280;62167;38.552;-121.478;2022-10-16T12:25:29;101357.09;;;13.76;81.74
50464;BME280;62167;38.552;-121.478;2022-10-16T12:28:04;101358.66;;;13.79;81.58
50464;BME280;62167;38.552;-121.478;2022-10-16T12:30:34;101368.59;;;13.79;81.70
50464;BME280;62167;38.552;-121.478;2022-10-16T12:33:05;101365.91;;;13.79;81.51
50464;BME280;62167;38.552;-121.478;2022-10-16T12:35:32;101366.44;;;13.74;81.83
50464;BME280;62167;38.552;-121.478;2022-10-16T12:38:12;101372.00;;;13.72;81.68
50464;BME280;62167;38.552;-121.478;2022-10-16T12:40:41;101374.03;;;13.70;81.67
50464;BME280;62167;38.552;-121.478;2022-10-16T12:45:45;101383.00;;;13.71;81.53
50464;BME280;62167;38.552;-121.478;2022-10-16T12:48:21;101383.50;;;13.66;81.73
50464;BME280;62167;38.552;-121.478;2022-10-16T12:50:47;101382.84;;;13.64;81.77
50464;BME280;62167;38.552;-121.478;2022-10-16T12:53:20;101380.28;;;13.63;81.81
50464;BME280;62167;38.552;-121.478;2022-10-16T12:55:58;101388.25;;;13.56;82.11
50464;BME280;62167;38.552;-121.478;2022-10-16T13:01:32;101395.72;;;13.54;82.57
50464;BME280;62167;38.552;-121.478;2022-10-16T13:09:30;101408.22;;;13.47;82.34
50464;BME280;62167;38.552;-121.478;2022-10-16T13:12:06;101410.25;;;13.45;82.10
50464;BME280;62167;38.552;-121.478;2022-10-16T13:14:48;101413.78;;;13.45;82.39
50464;BME280;62167;38.552;-121.478;2022-10-16T13:27:48;101423.41;;;13.32;82.34
50464;BME280;62167;38.552;-121.478;2022-10-16T13:30:18;101423.41;;;13.23;82.42
50464;BME280;62167;38.552;-121.478;2022-10-16T13:32:46;101420.16;;;13.20;82.77
50464;BME280;62167;38.552;-121.478;2022-10-16T13:35:22;101422.19;;;13.18;82.88
50464;BME280;62167;38.552;-121.478;2022-10-16T13:37:49;101423.19;;;13.17;83.16
50464;BME280;62167;38.552;-121.478;2022-10-16T13:40:19;101431.16;;;13.18;83.15
50464;BME280;62167;38.552;-121.478;2022-10-16T13:42:45;101432.13;;;13.17;83.18
50464;BME280;62167;38.552;-121.478;2022-10-16T13:45:18;101428.09;;;13.13;83.45
50464;BME280;62167;38.552;-121.478;2022-10-16T13:47:44;101428.75;;;13.15;83.13
50464;BME280;62167;38.552;-121.478;2022-10-16T13:50:14;101441.63;;;13.13;83.08
50464;BME280;62167;38.552;-121.478;2022-10-16T13:52:40;101449.22;;;13.10;83.42
50464;BME280;62167;38.552;-121.478;2022-10-16T13:55:15;101454.44;;;13.11;83.16
50464;BME280;62167;38.552;-121.478;2022-10-16T13:57:42;101455.78;;;13.07;83.20
50464;BME280;62167;38.552;-121.478;2022-10-16T14:00:21;101456.97;;;13.05;83.01
50464;BME280;62167;38.552;-121.478;2022-10-16T14:02:51;101462.38;;;13.05;83.03
50464;BME280;62167;38.552;-121.478;2022-10-16T14:05:18;101464.25;;;13.04;83.33
50464;BME280;62167;38.552;-121.478;2022-10-16T14:07:47;101469.13;;;13.01;83.42
50464;BME280;62167;38.552;-121.478;2022-10-16T14:10:19;101467.75;;;12.96;83.48
50464;BME280;62167;38.552;-121.478;2022-10-16T14:12:53;101478.72;;;12.95;83.47
50464;BME280;62167;38.552;-121.478;2022-10-16T14:15:19;101477.19;;;12.92;83.67
50464;BME280;62167;38.552;-121.478;2022-10-16T14:17:45;101483.59;;;12.91;83.87
50464;BME280;62167;38.552;-121.478;2022-10-16T14:20:14;101480.91;;;12.91;83.70